Time;durP1;ratioP1;P1;durP2;ratioP2;P2;SDS_P1;SDS_P2;PMS_P1;PMS_P2;Temp;Humidity;BMP_temperature;BMP_pressure;BME280_temperature;BME280_humidity;BME280_pressure;Samples;Min_cycle;Max_cycle;Signal;HPM_P1;HPM_P2
2021/08/15 00:02:12;;;;;;;;;;;;;;;;;;5089497;28;1179;-85
2021/08/15 00:04:37;;;;;;;;;;;;;;;;;;5085247;28;1329;-85
2021/08/15 00:07:02;;;;;;;;;;;;;;;;;;5086423;28;1502;-85
2021/08/15 00:09:27;;;;;;;;;;;;;;;;;;5086466;28;1175;-85
2021/08/15 00:11:53;;;;;;;;;;;;;;;;;;5083351;28;1566;-85
2021/08/15 00:14:18;;;;;;;;;;;;;;;;;;5086321;28;1973;-85
2021/08/15 00:16:43;;;;;;;;;;;;;;;;;;5086004;28;1459;-85
2021/08/15 00:19:08;;;;;;;;;;;;;;;;;;5088463;27;1266;-85
2021/08/15 00:21:33;;;;;;;;;;;;;;;;;;5084637;28;1634;-85
2021/08/15 00:23:59;;;;;;;;;;;;;;;;;;5089180;28;1271;-85
2021/08/15 00:26:24;;;;;;;;;;;;;;;;;;5085124;28;1203;-85
2021/08/15 00:28:49;;;;;;;;;;;;;;;;;;5085915;28;1871;-85
2021/08/15 00:31:14;;;;;;;;;;;;;;;;;;5086592;28;1271;-85
2021/08/15 00:33:40;;;;;;;;;;;;;;;;;;5086351;28;1922;-85
2021/08/15 00:36:05;;;;;;;;;;;;;;;;;;5088493;28;1646;-85
2021/08/15 00:38:30;;;;;;;;;;;;;;;;;;5085793;28;1377;-85
2021/08/15 00:40:55;;;;;;;;;;;;;;;;;;5086127;28;1053;-85
2021/08/15 00:43:21;;;;;;;;;;;;;;;;;;5086624;28;1574;-85
2021/08/15 00:45:46;;;;;;;;;;;;;;;;;;5088561;28;1361;-85
2021/08/15 00:48:11;;;;;;;;;;;;;;;;;;5087739;28;1218;-85
2021/08/15 00:50:37;;;;;;;;;;;;;;;;;;5085169;28;1586;-85
2021/08/15 00:53:02;;;;;;;;;;;;;;;;;;5084291;28;1905;-85
2021/08/15 00:55:27;;;;;;;;;;;;;;;;;;5087172;28;1355;-85
2021/08/15 00:57:52;;;;;;;;;;;;;;;;;;5084558;28;1594;-85
2021/08/15 01:00:17;;;;;;;;;;;;;;;;;;5081812;28;1550;-85
2021/08/15 01:02:44;;;;;;;;;;;;;;;;;;5082663;28;1396;-85
2021/08/15 01:05:09;;;;;;;;;;;;;;;;;;5082182;28;1141;-85
2021/08/15 01:07:34;;;;;;;;;;;;;;;;;;5084267;28;1186;-86
2021/08/15 01:10:00;;;;;;;;;;;;;;;;;;5081042;28;1555;-85
2021/08/15 01:12:27;;;;;;;;;;;;;;;;;;5083274;28;1910;-85
2021/08/15 01:14:52;;;;;;;;;;;;;;;;;;5064715;28;1312;-88
2021/08/15 01:17:17;;;;;;;;;;;;;;;;;;5082761;28;1381;-87
2021/08/15 01:19:42;;;;;;;;;;;;;;;;;;5080485;28;1234;-87
2021/08/15 01:22:08;;;;;;;;;;;;;;;;;;5084394;28;1558;-87
2021/08/15 01:24:33;;;;;;;;;;;;;;;;;;5083744;28;1370;-88
2021/08/15 01:26:58;;;;;;;;;;;;;;;;;;5080556;28;1526;-89
2021/08/15 01:29:23;;;;;;;;;;;;;;;;;;5084060;28;1840;-88
2021/08/15 01:31:49;;;;;;;;;;;;;;;;;;5080826;28;1242;-88
2021/08/15 01:34:14;;;;;;;;;;;;;;;;;;5082127;28;1902;-87
2021/08/15 01:36:39;;;;;;;;;;;;;;;;;;5082080;28;1586;-88
2021/08/15 01:39:05;;;;;;;;;;;;;;;;;;5081088;28;996;-87
2021/08/15 01:41:30;;;;;;;;;;;;;;;;;;5083345;28;1258;-87
2021/08/15 01:43:56;;;;;;;;;;;;;;;;;;5082741;28;1982;-87
2021/08/15 01:46:22;;;;;;;;;;;;;;;;;;5082153;28;1411;-88
2021/08/15 01:48:48;;;;;;;;;;;;;;;;;;5084498;28;1216;-87
2021/08/15 01:51:14;;;;;;;;;;;;;;;;;;5082187;28;1586;-87
2021/08/15 01:53:39;;;;;;;;;;;;;;;;;;5080897;28;1965;-88
2021/08/15 01:56:04;;;;;;;;;;;;;;;;;;5080129;28;1146;-87
2021/08/15 01:58:29;;;;;;;;;;;;;;;;;;5079873;28;1656;-87
2021/08/15 02:00:54;;;;;;;;;;;;;;;;;;5081993;28;1171;-87
2021/08/15 02:03:19;;;;;;;;;;;;;;;;;;5081408;28;1458;-87
2021/08/15 02:05:45;;;;;;;;;;;;;;;;;;5081704;28;1598;-87
2021/08/15 02:08:10;;;;;;;;;;;;;;;;;;5082832;28;1538;-87
2021/08/15 02:10:35;;;;;;;;;;;;;;;;;;5081301;28;1183;-87
2021/08/15 02:13:01;;;;;;;;;;;;;;;;;;5079902;28;1902;-87
2021/08/15 02:15:26;;;;;;;;;;;;;;;;;;5082052;28;1178;-87
2021/08/15 02:17:51;;;;;;;;;;;;;;;;;;5080228;28;1230;-87
2021/08/15 02:20:17;;;;;;;;;;;;;;;;;;5079299;28;1481;-88
2021/08/15 02:22:42;;;;;;;;;;;;;;;;;;5080489;28;1707;-87
2021/08/15 02:25:08;;;;;;;;;;;;;;;;;;5080688;28;1396;-87
2021/08/15 02:27:34;;;;;;;;;;;;;;;;;;5079889;28;1586;-87
2021/08/15 02:29:59;;;;;;;;;;;;;;;;;;5078023;28;1140;-87
2021/08/15 02:32:24;;;;;;;;;;;;;;;;;;5086105;28;1957;-87
2021/08/15 02:34:49;;;;;;;;;;;;;;;;;;5080669;28;1280;-87
2021/08/15 02:37:14;;;;;;;;;;;;;;;;;;5079924;28;1215;-87
2021/08/15 02:39:40;;;;;;;;;;;;;;;;;;5085431;28;1506;-87
2021/08/15 02:42:05;;;;;;;;;;;;;;;;;;5082587;28;1567;-88
2021/08/15 02:44:30;;;;;;;;;;;;;;;;;;5082310;28;1309;-88
2021/08/15 02:46:55;;;;;;;;;;;;;;;;;;5080109;28;1116;-87
2021/08/15 02:49:20;;;;;;;;;;;;;;;;;;5081960;28;1403;-87
2021/08/15 02:51:45;;;;;;;;;;;;;;;;;;5079726;28;1595;-88
2021/08/15 02:54:11;;;;;;;;;;;;;;;;;;5080174;28;1914;-87
2021/08/15 02:56:36;;;;;;;;;;;;;;;;;;5081158;28;1107;-87
2021/08/15 02:59:01;;;;;;;;;;;;;;;;;;5081819;28;1756;-87
2021/08/15 03:01:26;;;;;;;;;;;;;;;;;;5079936;28;1258;-87
2021/08/15 03:03:51;;;;;;;;;;;;;;;;;;5080795;28;1315;-88
2021/08/15 03:06:16;;;;;;;;;;;;;;;;;;5081801;28;1559;-87
2021/08/15 03:08:42;;;;;;;;;;;;;;;;;;5079045;28;1238;-87
2021/08/15 03:11:07;;;;;;;;;;;;;;;;;;5079837;28;1092;-87
2021/08/15 03:13:32;;;;;;;;;;;;;;;;;;5079615;28;2046;-87
2021/08/15 03:15:57;;;;;;;;;;;;;;;;;;5079450;28;1112;-87
2021/08/15 03:18:22;;;;;;;;;;;;;;;;;;5081214;28;1606;-87
2021/08/15 03:20:47;;;;;;;;;;;;;;;;;;5083752;28;1394;-87
2021/08/15 03:23:13;;;;;;;;;;;;;;;;;;5078591;28;1602;-88
2021/08/15 03:25:38;;;;;;;;;;;;;;;;;;5079170;28;1183;-88
2021/08/15 03:28:04;;;;;;;;;;;;;;;;;;5081367;28;2124;-88
2021/08/15 03:30:29;;;;;;;;;;;;;;;;;;5081443;28;1163;-88
2021/08/15 03:32:54;;;;;;;;;;;;;;;;;;5080544;28;1959;-87
2021/08/15 03:35:19;;;;;;;;;;;;;;;;;;5063548;28;1569;-88
2021/08/15 03:37:44;;;;;;;;;;;;;;;;;;5079634;28;1578;-87
2021/08/15 03:40:10;;;;;;;;;;;;;;;;;;5081053;28;1517;-88
2021/08/15 03:42:36;;;;;;;;;;;;;;;;;;5079126;28;1539;-88
2021/08/15 03:45:01;;;;;;;;;;;;;;;;;;5080095;28;1433;-87
2021/08/15 03:47:31;;;;;;;;;;;;;;;;;;5078492;28;1184;-89
2021/08/15 03:49:56;;;;;;;;;;;;;;;;;;5079318;28;1578;-88
2021/08/15 03:52:21;;;;;;;;;;;;;;;;;;5079127;28;1948;-87
2021/08/15 03:54:47;;;;;;;;;;;;;;;;;;5083019;28;1370;-87
2021/08/15 03:57:12;;;;;;;;;;;;;;;;;;5081143;28;1720;-88
2021/08/15 03:59:37;;;;;;;;;;;;;;;;;;5079883;28;2070;-88
2021/08/15 04:02:02;;;;;;;;;;;;;;;;;;5079447;28;1095;-87
2021/08/15 04:04:27;;;;;;;;;;;;;;;;;;5080181;28;1673;-88
2021/08/15 04:06:52;;;;;;;;;;;;;;;;;;5080281;28;2081;-87
2021/08/15 04:09:18;;;;;;;;;;;;;;;;;;5079490;28;1630;-88
2021/08/15 04:11:43;;;;;;;;;;;;;;;;;;5079370;28;1253;-89
2021/08/15 04:14:08;;;;;;;;;;;;;;;;;;5081756;28;1913;-88
2021/08/15 04:16:33;;;;;;;;;;;;;;;;;;5080141;28;1120;-87
2021/08/15 04:18:58;;;;;;;;;;;;;;;;;;5077596;28;1269;-88
2021/08/15 04:21:24;;;;;;;;;;;;;;;;;;5078596;28;1597;-88
2021/08/15 04:23:49;;;;;;;;;;;;;;;;;;5078800;28;1246;-88
2021/08/15 04:26:14;;;;;;;;;;;;;;;;;;5078149;28;1471;-88
2021/08/15 04:28:39;;;;;;;;;;;;;;;;;;5082639;28;1530;-88
2021/08/15 04:31:04;;;;;;;;;;;;;;;;;;5081423;28;1142;-87
2021/08/15 04:33:30;;;;;;;;;;;;;;;;;;5078276;28;1914;-87
2021/08/15 04:35:55;;;;;;;;;;;;;;;;;;5078994;28;1191;-87
2021/08/15 04:38:20;;;;;;;;;;;;;;;;;;5078604;28;1579;-87
2021/08/15 04:40:45;;;;;;;;;;;;;;;;;;5099696;28;1132;-88
2021/08/15 04:43:11;;;;;;;;;;;;;;;;;;5077891;28;2223;-88
2021/08/15 04:45:36;;;;;;;;;;;;;;;;;;5085763;28;1199;-88
2021/08/15 04:48:02;;;;;;;;;;;;;;;;;;5082700;28;1163;-88
2021/08/15 04:50:27;;;;;;;;;;;;;;;;;;5082280;28;1575;-87
2021/08/15 04:52:52;;;;;;;;;;;;;;;;;;5084230;28;1963;-88
2021/08/15 04:55:17;;;;;;;;;;;;;;;;;;5082373;28;1465;-88
2021/08/15 04:57:42;;;;;;;;;;;;;;;;;;5082478;28;1618;-87
2021/08/15 05:00:08;;;;;;;;;;;;;;;;;;5083550;28;1465;-87
2021/08/15 05:02:33;;;;;;;;;;;;;;;;;;5086528;28;985;-88
2021/08/15 05:04:58;;;;;;;;;;;;;;;;;;5081280;28;1566;-88
2021/08/15 05:07:23;;;;;;;;;;;;;;;;;;5083665;28;1817;-88
2021/08/15 05:09:48;;;;;;;;;;;;;;;;;;5081676;28;1179;-88
2021/08/15 05:12:14;;;;;;;;;;;;;;;;;;5082527;28;1581;-88
2021/08/15 05:14:39;;;;;;;;;;;;;;;;;;5082396;28;1977;-88
2021/08/15 05:17:06;;;;;;;;;;;;;;;;;;5082432;28;1480;-88
2021/08/15 05:19:31;;;;;;;;;;;;;;;;;;5082108;28;981;-88
2021/08/15 05:21:56;;;;;;;;;;;;;;;;;;5084374;28;1590;-88
2021/08/15 05:24:21;;;;;;;;;;;;;;;;;;5082439;28;1264;-88
2021/08/15 05:26:46;;;;;;;;;;;;;;;;;;5081320;28;1566;-88
2021/08/15 05:29:11;;;;;;;;;;;;;;;;;;5084310;28;1225;-88
2021/08/15 05:31:37;;;;;;;;;;;;;;;;;;5082366;28;1160;-88
2021/08/15 05:34:02;;;;;;;;;;;;;;;;;;5083205;28;1910;-88
2021/08/15 05:36:27;;;;;;;;;;;;;;;;;;5082538;28;1550;-88
2021/08/15 05:38:53;;;;;;;;;;;;;;;;;;5081397;28;1148;-87
2021/08/15 05:41:18;;;;;;;;;;;;;;;;;;5082581;28;1144;-88
2021/08/15 05:43:43;;;;;;;;;;;;;;;;;;5084926;28;1585;-88
2021/08/15 05:46:08;;;;;;;;;;;;;;;;;;5081492;28;1198;-87
2021/08/15 05:48:33;;;;;;;;;;;;;;;;;;5081749;28;1329;-87
2021/08/15 05:50:59;;;;;;;;;;;;;;;;;;5081528;28;1475;-88
2021/08/15 05:53:24;;;;;;;;;;;;;;;;;;5082607;28;1955;-87
2021/08/15 05:55:49;;;;;;;;;;;;;;;;;;5062898;28;1137;-87
2021/08/15 05:58:14;;;;;;;;;;;;;;;;;;5082909;28;1479;-88
2021/08/15 06:00:39;;;;;;;;;;;;;;;;;;5081851;28;1526;-88
2021/08/15 06:03:04;;;;;;;;;;;;;;;;;;5080697;28;1355;-88
2021/08/15 06:05:30;;;;;;;;;;;;;;;;;;5081343;28;1176;-87
2021/08/15 06:07:55;;;;;;;;;;;;;;;;;;5080428;28;1421;-87
2021/08/15 06:10:20;;;;;;;;;;;;;;;;;;5082910;28;1570;-87
2021/08/15 06:12:45;;;;;;;;;;;;;;;;;;5082191;28;2240;-87
2021/08/15 06:15:13;;;;;;;;;;;;;;;;;;5080790;28;1120;-88
2021/08/15 06:17:39;;;;;;;;;;;;;;;;;;5078777;28;1306;-88
2021/08/15 06:20:06;;;;;;;;;;;;;;;;;;5083548;28;1578;-87
2021/08/15 06:22:31;;;;;;;;;;;;;;;;;;5081009;28;1551;-87
2021/08/15 06:24:56;;;;;;;;;;;;;;;;;;5078867;28;1423;-88
2021/08/15 06:27:21;;;;;;;;;;;;;;;;;;5080643;28;1609;-87
2021/08/15 06:29:46;;;;;;;;;;;;;;;;;;5082334;28;1273;-88
2021/08/15 06:32:11;;;;;;;;;;;;;;;;;;5079755;28;1231;-89
2021/08/15 06:34:37;;;;;;;;;;;;;;;;;;5081798;28;1906;-89
2021/08/15 06:37:03;;;;;;;;;;;;;;;;;;5080129;28;1820;-87
2021/08/15 06:39:28;;;;;;;;;;;;;;;;;;5080348;28;1223;-88
2021/08/15 06:41:54;;;;;;;;;;;;;;;;;;5081019;28;1615;-87
2021/08/15 06:44:19;;;;;;;;;;;;;;;;;;5085336;28;1381;-87
2021/08/15 06:46:44;;;;;;;;;;;;;;;;;;5080466;28;1234;-87
2021/08/15 06:49:09;;;;;;;;;;;;;;;;;;5079075;28;1409;-87
2021/08/15 06:51:34;;;;;;;;;;;;;;;;;;5080073;28;1571;-88
2021/08/15 06:53:59;;;;;;;;;;;;;;;;;;5080203;28;1971;-87
2021/08/15 06:56:25;;;;;;;;;;;;;;;;;;5079875;28;1253;-87
2021/08/15 06:58:50;;;;;;;;;;;;;;;;;;5081859;28;1494;-87
2021/08/15 07:01:15;;;;;;;;;;;;;;;;;;5080504;28;1143;-87
2021/08/15 07:03:40;;;;;;;;;;;;;;;;;;5083099;28;1413;-87
2021/08/15 07:06:06;;;;;;;;;;;;;;;;;;5078548;28;2108;-87
2021/08/15 07:08:31;;;;;;;;;;;;;;;;;;5079374;28;1369;-87
2021/08/15 07:10:56;;;;;;;;;;;;;;;;;;5080997;28;1176;-87
2021/08/15 07:15:52;;;;;;;;;;;;;;;;;;5087160;28;1519;-50
2021/08/15 07:18:18;;;;;;;;;;;;;;;;;;5092304;28;1236;-50
2021/08/15 07:20:43;;;;;;;;;;;;;;;;;;5098728;28;1494;-50
2021/08/15 07:23:08;;;;;;;;;;;;;;;;;;5096518;28;1815;-50
2021/08/15 07:25:37;;;;;;;;;;;;;;;;;;5094738;28;1466;-49
2021/08/15 07:28:02;;;;;;;;;;;;;;;;;;5095832;28;1642;-49
2021/08/15 07:30:28;;;;;;;;;;;;;;;;;;5098332;28;1617;-50
2021/08/15 07:32:57;;;;;;;;;;;;;;;;;;5100439;28;1969;-50
2021/08/15 07:35:23;;;;;;;;;;;;;;;;;;5098204;28;1257;-51
2021/08/15 07:37:48;;;;;;;;;;;;;;;;;;5097892;28;1638;-48
2021/08/15 07:40:13;;;;;;;;;;;;;;;;;;5099437;28;1155;-49
2021/08/15 07:42:38;;;;;;;;;;;;;;;;;;5097483;28;1562;-50
2021/08/15 07:45:04;;;;;;;;;;;;;;;;;;5099462;28;1172;-48
2021/08/15 07:47:29;;;;;;;;;;;;;;;;;;5099499;28;1116;-50
2021/08/15 07:49:54;;;;;;;;;;;;;;;;;;5096876;28;1389;-49
2021/08/15 07:52:19;;;;;;;;;;;;;;;;;;5097940;28;1625;-48
2021/08/15 07:54:45;;;;;;;;;;;;;;;;;;5097422;28;1979;-49
2021/08/15 07:57:10;;;;;;;;;;;;;;;;;;5098526;28;1612;-49
2021/08/15 07:59:35;;;;;;;;;;;;;;;;;;5097329;28;1393;-49
2021/08/15 08:02:00;;;;;;;;;;;;;;;;;;5100246;28;1304;-49
2021/08/15 08:04:25;;;;;;;;;;;;;;;;;;5098412;28;1220;-50
2021/08/15 08:06:51;;;;;;;;;;;;;;;;;;5098937;28;1645;-49
2021/08/15 08:09:16;;;;;;;;;;;;;;;;;;5099718;28;1275;-49
2021/08/15 08:11:41;;;;;;;;;;;;;;;;;;5101268;28;1202;-49
2021/08/15 08:14:06;;;;;;;;;;;;;;;;;;5097312;28;1906;-50
2021/08/15 08:16:31;;;;;;;;;;;;;;;;;;5093938;28;1662;-49
2021/08/15 08:18:56;;;;;;;;;;;;;;;;;;5101880;28;1216;-50
2021/08/15 08:21:22;;;;;;;;;;;;;;;;;;5102663;28;1574;-49
2021/08/15 08:23:47;;;;;;;;;;;;;;;;;;5101832;28;1277;-49
2021/08/15 08:26:12;;;;;;;;;;;;;;;;;;5101135;28;1148;-50
2021/08/15 08:28:37;;;;;;;;;;;;;;;;;;5080823;28;1551;-48
2021/08/15 08:31:02;;;;;;;;;;;;;;;;;;5102271;28;1819;-49
2021/08/15 08:33:28;;;;;;;;;;;;;;;;;;5100812;28;1914;-49
2021/08/15 08:35:53;;;;;;;;;;;;;;;;;;5094353;28;1545;-49
2021/08/15 08:38:18;;;;;;;;;;;;;;;;;;5102024;28;1301;-49
2021/08/15 08:40:43;;;;;;;;;;;;;;;;;;5103239;28;1167;-50
2021/08/15 08:43:08;;;;;;;;;;;;;;;;;;5083072;28;1662;-50
2021/08/15 08:45:39;;;;;;;;;;;;;;;;;;5103199;28;1167;-49
2021/08/15 08:48:04;;;;;;;;;;;;;;;;;;5099477;28;1381;-50
2021/08/15 08:50:30;;;;;;;;;;;;;;;;;;5103822;28;1164;-49
2021/08/15 08:52:55;;;;;;;;;;;;;;;;;;5101697;28;2007;-50
2021/08/15 08:55:20;;;;;;;;;;;;;;;;;;5100402;28;1151;-49
2021/08/15 08:57:46;;;;;;;;;;;;;;;;;;5101286;28;1568;-50
2021/08/15 09:00:11;;;;;;;;;;;;;;;;;;5097761;28;1533;-49
2021/08/15 09:02:37;;;;;;;;;;;;;;;;;;5103833;28;1159;-49
2021/08/15 09:05:03;;;;;;;;;;;;;;;;;;5102276;28;1175;-50
2021/08/15 09:07:31;;;;;;;;;;;;;;;;;;5100694;28;1610;-49
2021/08/15 09:09:57;;;;;;;;;;;;;;;;;;5084497;28;1393;-49
2021/08/15 09:12:32;;;;;;;;;;;;;;;;;;5097565;28;1649;-48
2021/08/15 09:15:07;;;;;;;;;;;;;;;;;;5102490;28;1898;-49
2021/08/15 09:17:33;;;;;;;;;;;;;;;;;;5097831;28;1160;-49
2021/08/15 09:19:58;;;;;;;;;;;;;;;;;;5100790;28;1470;-49
2021/08/15 09:22:25;;;;;;;;;;;;;;;;;;5100880;28;1622;-49
2021/08/15 09:24:53;;;;;;;;;;;;;;;;;;5098205;28;1662;-49
2021/08/15 09:27:19;;;;;;;;;;;;;;;;;;5101716;28;1633;-50
2021/08/15 09:30:00;;;;;;;;;;;;;;;;;;5098423;28;1366;-49
2021/08/15 09:32:25;;;;;;;;;;;;;;;;;;5083488;28;1061;-48
2021/08/15 09:34:52;;;;;;;;;;;;;;;;;;5100370;28;1998;-49
2021/08/15 09:37:20;;;;;;;;;;;;;;;;;;5081605;28;1655;-50
2021/08/15 09:39:46;;;;;;;;;;;;;;;;;;5102036;28;1355;-49
2021/08/15 09:42:11;;;;;;;;;;;;;;;;;;5081422;28;1516;-48
2021/08/15 09:44:36;;;;;;;;;;;;;;;;;;5102467;28;1346;-49
2021/08/15 09:47:05;;;;;;;;;;;;;;;;;;5101083;28;1381;-49
2021/08/15 09:49:34;;;;;;;;;;;;;;;;;;5098517;28;1259;-50
2021/08/15 09:51:59;;;;;;;;;;;;;;;;;;5080756;28;1638;-50
2021/08/15 09:54:24;;;;;;;;;;;;;;;;;;5102551;28;1979;-49
2021/08/15 09:56:50;;;;;;;;;;;;;;;;;;5082288;28;1525;-49
2021/08/15 09:59:15;;;;;;;;;;;;;;;;;;5100231;28;1338;-50
2021/08/15 10:01:41;;;;;;;;;;;;;;;;;;5100109;28;1398;-50
2021/08/15 10:04:06;;;;;;;;;;;;;;;;;;5097519;28;1553;-50
2021/08/15 10:06:31;;;;;;;;;;;;;;;;;;5101735;28;1234;-50
2021/08/15 10:08:59;;;;;;;;;;;;;;;;;;5098507;28;1456;-50
2021/08/15 10:11:24;;;;;;;;;;;;;;;;;;5081681;28;1183;-50
2021/08/15 10:13:49;;;;;;;;;;;;;;;;;;5099697;28;1971;-49
2021/08/15 10:16:15;;;;;;;;;;;;;;;;;;5099073;28;1394;-49
2021/08/15 10:18:40;;;;;;;;;;;;;;;;;;5101657;28;1334;-50
2021/08/15 10:21:12;;;;;;;;;;;;;;;;;;5080342;28;1630;-51
2021/08/15 10:23:38;;;;;;;;;;;;;;;;;;5101492;28;1155;-49
2021/08/15 10:26:05;;;;;;;;;;;;;;;;;;5095993;28;1509;-49
2021/08/15 10:28:37;;;;;;;;;;;;;;;;;;5080043;28;1706;-49
2021/08/15 10:31:03;;;;;;;;;;;;;;;;;;5095793;28;1147;-49
2021/08/15 10:33:29;;;;;;;;;;;;;;;;;;5081361;28;1995;-49
2021/08/15 10:36:14;;;;;;;;;;;;;;;;;;5098339;28;1606;-49
2021/08/15 10:38:39;;;;;;;;;;;;;;;;;;5098113;28;2468;-49
2021/08/15 10:41:05;;;;;;;;;;;;;;;;;;5100401;28;1171;-50
2021/08/15 10:43:31;;;;;;;;;;;;;;;;;;5098827;28;1534;-51
2021/08/15 10:46:11;;;;;;;;;;;;;;;;;;5101088;28;1172;-49
2021/08/15 10:48:55;;;;;;;;;;;;;;;;;;5097348;28;1414;-49
2021/08/15 10:51:39;;;;;;;;;;;;;;;;;;5098874;28;1077;-50
2021/08/15 10:54:04;;;;;;;;;;;;;;;;;;5095196;28;1909;-49
2021/08/15 10:56:48;;;;;;;;;;;;;;;;;;5100999;28;1136;-49
2021/08/15 10:59:35;;;;;;;;;;;;;;;;;;5098361;28;1453;-49
2021/08/15 11:02:13;;;;;;;;;;;;;;;;;;5100385;28;1203;-49
2021/08/15 11:04:38;;;;;;;;;;;;;;;;;;5100638;28;1152;-48
2021/08/15 11:07:04;;;;;;;;;;;;;;;;;;5096979;28;1521;-50
2021/08/15 11:09:48;;;;;;;;;;;;;;;;;;5082456;28;1359;-49
2021/08/15 11:12:13;;;;;;;;;;;;;;;;;;5096575;28;1529;-49
2021/08/15 11:14:51;;;;;;;;;;;;;;;;;;5097417;28;1968;-50
2021/08/15 11:17:16;;;;;;;;;;;;;;;;;;5079151;28;1485;-50
2021/08/15 11:19:42;;;;;;;;;;;;;;;;;;5098475;28;1598;-49
2021/08/15 11:22:10;;;;;;;;;;;;;;;;;;5098120;28;1380;-48
2021/08/15 11:24:36;;;;;;;;;;;;;;;;;;5099883;28;1104;-49
2021/08/15 11:27:01;;;;;;;;;;;;;;;;;;5097406;28;1544;-51
2021/08/15 11:29:27;;;;;;;;;;;;;;;;;;5100899;28;1431;-50
2021/08/15 11:31:53;;;;;;;;;;;;;;;;;;5100702;28;1116;-49
2021/08/15 11:34:18;;;;;;;;;;;;;;;;;;5092113;28;1969;-49
2021/08/15 11:36:43;;;;;;;;;;;;;;;;;;5097824;28;2147;-50
2021/08/15 11:39:09;;;;;;;;;;;;;;;;;;5098420;28;1279;-48
2021/08/15 11:41:34;;;;;;;;;;;;;;;;;;5099824;28;1795;-50
2021/08/15 11:43:59;;;;;;;;;;;;;;;;;;5098760;28;1607;-50
2021/08/15 11:46:24;;;;;;;;;;;;;;;;;;5100520;28;1238;-49
2021/08/15 11:48:50;;;;;;;;;;;;;;;;;;5098576;28;1380;-49
2021/08/15 11:51:15;;;;;;;;;;;;;;;;;;5100068;28;1131;-49
2021/08/15 11:53:43;;;;;;;;;;;;;;;;;;5093565;28;1897;-48
2021/08/15 11:56:15;;;;;;;;;;;;;;;;;;5081053;28;1069;-49
2021/08/15 11:58:50;;;;;;;;;;;;;;;;;;5095712;28;1446;-49
2021/08/15 12:01:17;;;;;;;;;;;;;;;;;;5097414;28;1257;-48
2021/08/15 12:03:42;;;;;;;;;;;;;;;;;;5098260;28;1191;-49
2021/08/15 12:06:07;;;;;;;;;;;;;;;;;;5097629;28;1285;-49
2021/08/15 12:08:36;;;;;;;;;;;;;;;;;;5097656;28;1784;-49
2021/08/15 12:11:01;;;;;;;;;;;;;;;;;;5097788;28;1116;-49
2021/08/15 12:13:33;;;;;;;;;;;;;;;;;;5096821;28;2020;-49
2021/08/15 12:15:58;;;;;;;;;;;;;;;;;;5097902;28;1077;-50
2021/08/15 12:18:24;;;;;;;;;;;;;;;;;;5099556;28;1276;-50
2021/08/15 12:20:49;;;;;;;;;;;;;;;;;;5095357;28;1397;-50
2021/08/15 12:23:15;;;;;;;;;;;;;;;;;;5098246;28;1654;-50
2021/08/15 12:25:40;;;;;;;;;;;;;;;;;;5099063;28;1163;-50
2021/08/15 12:28:09;;;;;;;;;;;;;;;;;;5098583;28;1510;-50
2021/08/15 12:30:34;;;;;;;;;;;;;;;;;;5097566;28;1550;-49
2021/08/15 12:33:02;;;;;;;;;;;;;;;;;;5099622;28;1910;-50
2021/08/15 12:35:27;;;;;;;;;;;;;;;;;;5097768;28;1243;-50
2021/08/15 12:37:55;;;;;;;;;;;;;;;;;;5096695;28;1549;-50
2021/08/15 12:40:27;;;;;;;;;;;;;;;;;;5098992;28;1393;-50
2021/08/15 12:42:56;;;;;;;;;;;;;;;;;;5080829;28;1629;-49
2021/08/15 12:45:31;;;;;;;;;;;;;;;;;;5095849;28;1223;-50
2021/08/15 12:47:59;;;;;;;;;;;;;;;;;;5097879;28;1377;-50
2021/08/15 12:50:24;;;;;;;;;;;;;;;;;;5096928;28;1560;-50
2021/08/15 12:52:53;;;;;;;;;;;;;;;;;;5099446;28;1906;-48
2021/08/15 12:55:18;;;;;;;;;;;;;;;;;;5094840;28;1468;-49
2021/08/15 12:57:53;;;;;;;;;;;;;;;;;;5095644;28;1564;-49
2021/08/15 13:00:19;;;;;;;;;;;;;;;;;;5094705;28;1450;-49
2021/08/15 13:02:47;;;;;;;;;;;;;;;;;;5098875;28;1168;-48
2021/08/15 13:05:12;;;;;;;;;;;;;;;;;;5077571;28;1583;-49
2021/08/15 13:07:37;;;;;;;;;;;;;;;;;;5101966;28;1001;-50
2021/08/15 13:10:03;;;;;;;;;;;;;;;;;;5102390;28;1287;-49
2021/08/15 13:12:28;;;;;;;;;;;;;;;;;;5099212;28;1580;-49
2021/08/15 13:14:53;;;;;;;;;;;;;;;;;;5090430;28;1972;-49
2021/08/15 13:17:18;;;;;;;;;;;;;;;;;;5099831;28;1243;-50
2021/08/15 13:19:43;;;;;;;;;;;;;;;;;;5101178;28;1299;-48
2021/08/15 13:22:09;;;;;;;;;;;;;;;;;;5102727;28;1164;-49
2021/08/15 13:24:34;;;;;;;;;;;;;;;;;;5098758;28;1530;-50
2021/08/15 13:27:00;;;;;;;;;;;;;;;;;;5098443;22;1967;-85
2021/08/15 13:29:25;;;;;;;;;;;;;;;;;;5043692;28;1433;-86
2021/08/15 13:31:50;;;;;;;;;;;;;;;;;;5062432;28;1192;-85
2021/08/15 13:34:15;;;;;;;;;;;;;;;;;;5067370;28;1973;-85
2021/08/15 13:36:40;;;;;;;;;;;;;;;;;;5077571;28;1528;-85
2021/08/15 13:39:05;;;;;;;;;;;;;;;;;;5063559;28;1080;-85
2021/08/15 13:41:31;;;;;;;;;;;;;;;;;;5082545;28;1183;-85
2021/08/15 13:43:56;;;;;;;;;;;;;;;;;;5080423;28;1622;-85
2021/08/15 13:46:21;;;;;;;;;;;;;;;;;;5082411;28;1179;-85
2021/08/15 13:48:46;;;;;;;;;;;;;;;;;;5080180;28;1355;-85
2021/08/15 13:51:12;;;;;;;;;;;;;;;;;;5081861;28;1164;-85
2021/08/15 13:53:38;;;;;;;;;;;;;;;;;;5079634;28;1902;-85
2021/08/15 13:56:04;;;;;;;;;;;;;;;;;;5077491;28;1605;-86
2021/08/15 13:58:32;;;;;;;;;;;;;;;;;;5059004;28;1662;-85
2021/08/15 14:00:57;;;;;;;;;;;;;;;;;;5080992;28;1164;-85
2021/08/15 14:03:22;;;;;;;;;;;;;;;;;;5081429;28;1699;-85
2021/08/15 14:05:48;;;;;;;;;;;;;;;;;;5080405;28;1319;-86
2021/08/15 14:08:13;;;;;;;;;;;;;;;;;;5079269;28;1569;-85
2021/08/15 14:10:41;;;;;;;;;;;;;;;;;;5079746;28;1332;-85
2021/08/15 14:13:07;;;;;;;;;;;;;;;;;;5061705;28;1965;-85
2021/08/15 14:15:32;;;;;;;;;;;;;;;;;;5075683;28;2037;-85
2021/08/15 14:17:57;;;;;;;;;;;;;;;;;;5080375;28;1005;-85
2021/08/15 14:20:22;;;;;;;;;;;;;;;;;;5081492;28;1183;-85
2021/08/15 14:22:47;;;;;;;;;;;;;;;;;;5081779;28;1242;-85
2021/08/15 14:25:13;;;;;;;;;;;;;;;;;;5078880;28;1594;-85
2021/08/15 14:27:40;;;;;;;;;;;;;;;;;;5077308;28;1701;-85
2021/08/15 14:30:05;;;;;;;;;;;;;;;;;;5061585;28;1328;-85
2021/08/15 14:32:30;;;;;;;;;;;;;;;;;;5080271;28;1163;-85
2021/08/15 14:34:55;;;;;;;;;;;;;;;;;;5076738;28;1898;-85
2021/08/15 14:37:21;;;;;;;;;;;;;;;;;;5077336;28;1691;-85
2021/08/15 14:39:46;;;;;;;;;;;;;;;;;;5075628;28;1163;-86
2021/08/15 14:42:11;;;;;;;;;;;;;;;;;;5077806;28;1590;-85
2021/08/15 14:44:36;;;;;;;;;;;;;;;;;;5078904;28;1360;-85
2021/08/15 14:47:01;;;;;;;;;;;;;;;;;;5080647;28;1061;-85
2021/08/15 14:49:27;;;;;;;;;;;;;;;;;;5080316;28;1191;-86
2021/08/15 14:51:52;;;;;;;;;;;;;;;;;;5078874;28;1547;-85
2021/08/15 14:54:17;;;;;;;;;;;;;;;;;;5079235;28;1918;-85
2021/08/15 14:56:42;;;;;;;;;;;;;;;;;;5080423;28;1163;-86
2021/08/15 14:59:08;;;;;;;;;;;;;;;;;;5076108;28;1641;-85
2021/08/15 15:01:33;;;;;;;;;;;;;;;;;;5061225;28;1214;-85
2021/08/15 15:03:58;;;;;;;;;;;;;;;;;;5079016;28;1274;-85
2021/08/15 15:06:24;;;;;;;;;;;;;;;;;;5081308;28;1334;-85
2021/08/15 15:08:49;;;;;;;;;;;;;;;;;;5076845;28;1804;-85
2021/08/15 15:11:14;;;;;;;;;;;;;;;;;;5047117;28;1267;-86
2021/08/15 15:13:39;;;;;;;;;;;;;;;;;;5079234;28;1957;-85
2021/08/15 15:16:05;;;;;;;;;;;;;;;;;;5078723;28;1587;-86
2021/08/15 15:18:30;;;;;;;;;;;;;;;;;;5080385;28;1239;-85
2021/08/15 15:20:55;;;;;;;;;;;;;;;;;;5074506;28;1578;-85
2021/08/15 15:23:20;;;;;;;;;;;;;;;;;;5079717;28;1191;-85
2021/08/15 15:25:45;;;;;;;;;;;;;;;;;;5078331;28;1594;-85
2021/08/15 15:28:10;;;;;;;;;;;;;;;;;;5060673;28;1603;-85
2021/08/15 15:30:36;;;;;;;;;;;;;;;;;;5080092;28;1258;-85
2021/08/15 15:33:04;;;;;;;;;;;;;;;;;;5078837;28;1914;-85
2021/08/15 15:35:29;;;;;;;;;;;;;;;;;;5076825;28;1348;-85
2021/08/15 15:37:54;;;;;;;;;;;;;;;;;;5080101;28;1543;-85
2021/08/15 15:40:19;;;;;;;;;;;;;;;;;;5060862;28;1168;-85
2021/08/15 15:42:44;;;;;;;;;;;;;;;;;;5075948;28;1567;-85
2021/08/15 15:45:10;;;;;;;;;;;;;;;;;;5079235;28;1353;-85
2021/08/15 15:47:36;;;;;;;;;;;;;;;;;;5077353;28;1259;-85
2021/08/15 15:50:02;;;;;;;;;;;;;;;;;;5080686;28;1113;-86
2021/08/15 15:52:27;;;;;;;;;;;;;;;;;;5078824;28;2030;-85
2021/08/15 15:54:52;;;;;;;;;;;;;;;;;;5059207;28;1977;-85
2021/08/15 15:57:17;;;;;;;;;;;;;;;;;;5075769;28;1581;-85
2021/08/15 15:59:42;;;;;;;;;;;;;;;;;;5081241;28;1152;-85
2021/08/15 16:02:08;;;;;;;;;;;;;;;;;;5078266;28;1310;-85
2021/08/15 16:04:33;;;;;;;;;;;;;;;;;;5079029;28;1361;-85
2021/08/15 16:06:58;;;;;;;;;;;;;;;;;;5076022;28;1549;-86
2021/08/15 16:09:23;;;;;;;;;;;;;;;;;;5079763;28;1303;-86
2021/08/15 16:11:48;;;;;;;;;;;;;;;;;;5060340;28;1718;-85
2021/08/15 16:14:14;;;;;;;;;;;;;;;;;;5078599;28;1964;-85
2021/08/15 16:16:39;;;;;;;;;;;;;;;;;;5079729;28;1231;-85
2021/08/15 16:19:04;;;;;;;;;;;;;;;;;;5061354;28;1108;-85
2021/08/15 16:21:29;;;;;;;;;;;;;;;;;;5015510;28;1172;-86
2021/08/15 16:23:54;;;;;;;;;;;;;;;;;;5070332;28;1785;-86
2021/08/15 16:26:20;;;;;;;;;;;;;;;;;;5078978;28;1164;-86
2021/08/15 16:28:45;;;;;;;;;;;;;;;;;;5058351;28;1643;-86
2021/08/15 16:31:11;;;;;;;;;;;;;;;;;;5080266;28;1386;-86
2021/08/15 16:33:36;;;;;;;;;;;;;;;;;;5078311;28;1968;-86
2021/08/15 16:36:02;;;;;;;;;;;;;;;;;;5060159;28;1580;-85
2021/08/15 16:38:27;;;;;;;;;;;;;;;;;;5061373;28;1243;-85
2021/08/15 16:40:52;;;;;;;;;;;;;;;;;;5083361;28;1105;-85
2021/08/15 16:43:18;;;;;;;;;;;;;;;;;;5077787;28;1570;-86
2021/08/15 16:45:43;;;;;;;;;;;;;;;;;;5079135;28;1449;-86
2021/08/15 16:48:08;;;;;;;;;;;;;;;;;;5081810;28;1172;-86
2021/08/15 16:50:33;;;;;;;;;;;;;;;;;;5083538;28;1160;-86
2021/08/15 16:52:58;;;;;;;;;;;;;;;;;;5062673;28;1906;-86
2021/08/15 16:55:23;;;;;;;;;;;;;;;;;;5082397;28;1279;-86
2021/08/15 16:57:49;;;;;;;;;;;;;;;;;;5079537;28;1965;-87